Time;durP1;ratioP1;P1;durP2;ratioP2;P2;SDS_P1;SDS_P2;PMS_P1;PMS_P2;Temp;Humidity;BMP_temperature;BMP_pressure;BME280_temperature;BME280_humidity;BME280_pressure;Samples;Min_cycle;Max_cycle;Signal;HPM_P1;HPM_P2
2021/07/31 00:01:17;;;;;;;;;;;;;;;13.12;89.30;99211.28;5112731;28;19964;-75
2021/07/31 00:03:43;;;;;;;;;;;;;;;13.26;88.99;99209.09;5112337;28;19924;-75
2021/07/31 00:06:10;;;;;;;;;;;;;;;13.20;89.15;99216.63;5112984;28;19935;-75
2021/07/31 00:08:38;;;;;;;;;;;;;;;13.04;89.95;99218.00;5112730;28;19924;-75
2021/07/31 00:11:04;;;;;;;;;;;;;;;13.14;89.41;99211.97;5112686;28;19924;-75
2021/07/31 00:13:31;;;;;;;;;;;;;;;13.29;89.18;99216.66;5112855;28;19931;-76
2021/07/31 00:15:58;;;;;;;;;;;;;;;13.19;89.26;99213.19;5112355;28;19934;-75
2021/07/31 00:18:24;;;;;;;;;;;;;;;13.29;89.07;99214.03;5112792;28;19923;-75
2021/07/31 00:20:51;;;;;;;;;;;;;;;13.09;89.72;99212.38;5112622;28;19923;-76
2021/07/31 00:23:17;;;;;;;;;;;;;;;13.06;89.77;99217.88;5112562;28;19923;-75
2021/07/31 00:25:45;;;;;;;;;;;;;;;13.20;88.91;99214.84;5112285;28;20377;-75
2021/07/31 00:28:12;;;;;;;;;;;;;;;13.07;89.66;99217.75;5112424;28;20404;-75
2021/07/31 00:30:38;;;;;;;;;;;;;;;13.16;89.44;99218.69;5112819;28;19939;-76
2021/07/31 00:33:05;;;;;;;;;;;;;;;12.99;90.29;99216.78;5112465;28;19924;-76
2021/07/31 00:35:32;;;;;;;;;;;;;;;12.82;90.64;99221.72;5112324;28;20313;-76
2021/07/31 00:37:58;;;;;;;;;;;;;;;12.72;91.00;99227.91;5112458;28;19927;-75
2021/07/31 00:40:25;;;;;;;;;;;;;;;13.01;90.17;99215.69;5112757;28;19924;-75
2021/07/31 00:42:53;;;;;;;;;;;;;;;12.94;90.47;99219.78;5112237;28;19924;-75
2021/07/31 00:45:19;;;;;;;;;;;;;;;12.94;90.40;99221.59;5112402;28;20313;-75
2021/07/31 00:47:46;;;;;;;;;;;;;;;13.04;90.34;99218.00;5112529;28;19924;-76
2021/07/31 00:50:13;;;;;;;;;;;;;;;13.12;89.42;99225.16;5116007;28;19924;-76
2021/07/31 00:52:41;;;;;;;;;;;;;;;12.68;91.73;99222.09;5115873;28;19928;-75
2021/07/31 00:55:08;;;;;;;;;;;;;;;12.90;91.56;99228.06;5116388;28;20335;-76
2021/07/31 00:57:36;;;;;;;;;;;;;;;12.97;91.07;99227.38;5116098;28;19931;-76
2021/07/31 01:00:04;;;;;;;;;;;;;;;12.85;90.68;99231.88;5115639;28;19938;-76
2021/07/31 01:02:31;;;;;;;;;;;;;;;13.00;90.69;99229.69;5115918;28;19924;-75
2021/07/31 01:04:58;;;;;;;;;;;;;;;13.05;90.38;99234.53;5115618;28;19929;-75
2021/07/31 01:07:25;;;;;;;;;;;;;;;12.92;90.75;99233.94;5115759;28;20286;-76
2021/07/31 01:09:52;;;;;;;;;;;;;;;12.88;91.02;99230.78;5115776;28;19924;-75
2021/07/31 01:12:18;;;;;;;;;;;;;;;13.07;90.50;99227.34;5115934;28;19931;-76
2021/07/31 01:14:45;;;;;;;;;;;;;;;12.94;90.73;99230.22;5115457;28;20296;-75
2021/07/31 01:17:13;;;;;;;;;;;;;;;12.86;91.01;99230.91;5115872;28;19930;-76
2021/07/31 01:19:40;;;;;;;;;;;;;;;12.89;91.64;99231.59;5115344;28;19928;-76
2021/07/31 01:22:08;;;;;;;;;;;;;;;12.70;92.04;99235.03;5115739;28;19924;-76
2021/07/31 01:24:35;;;;;;;;;;;;;;;12.67;92.40;99238.72;5115428;28;19969;-75
2021/07/31 01:27:01;;;;;;;;;;;;;;;12.77;92.04;99236.16;5115239;27;19923;-75
2021/07/31 01:29:28;;;;;;;;;;;;;;;12.97;91.04;99232.59;5115690;28;19923;-75
2021/07/31 01:31:55;;;;;;;;;;;;;;;12.97;90.84;99231.75;5115078;28;19931;-75
2021/07/31 01:34:21;;;;;;;;;;;;;;;13.04;90.04;99228.44;5115476;28;19924;-75
2021/07/31 01:36:48;;;;;;;;;;;;;;;13.05;90.17;99226.69;5115276;28;19935;-75
2021/07/31 01:39:16;;;;;;;;;;;;;;;12.76;91.74;99224.84;5115218;28;20389;-75
2021/07/31 01:41:43;;;;;;;;;;;;;;;13.04;90.45;99225.84;5115246;28;19924;-75
2021/07/31 01:44:10;;;;;;;;;;;;;;;12.95;90.68;99231.91;5115100;28;20393;-75
2021/07/31 01:46:37;;;;;;;;;;;;;;;13.04;90.25;99225.84;5115285;28;19923;-75
2021/07/31 01:49:03;;;;;;;;;;;;;;;13.15;89.83;99221.44;5115019;28;19924;-75
2021/07/31 01:51:30;;;;;;;;;;;;;;;13.09;90.02;99222.81;5115220;28;19938;-75
2021/07/31 01:53:58;;;;;;;;;;;;;;;13.00;90.55;99223.66;5114732;28;19924;-75
2021/07/31 01:56:26;;;;;;;;;;;;;;;12.97;90.83;99226.53;5115058;28;19977;-75
2021/07/31 01:58:53;;;;;;;;;;;;;;;12.90;91.26;99215.81;5114825;28;19924;-75
2021/07/31 02:01:19;;;;;;;;;;;;;;;12.97;90.91;99216.94;5114218;28;19924;-75
2021/07/31 02:03:46;;;;;;;;;;;;;;;12.94;91.00;99217.19;5114368;28;20385;-75
2021/07/31 02:06:12;;;;;;;;;;;;;;;12.88;91.42;99222.13;5115016;28;19924;-75
2021/07/31 02:08:39;;;;;;;;;;;;;;;12.98;90.74;99212.53;5114771;28;19924;-76
2021/07/31 02:11:05;;;;;;;;;;;;;;;13.15;90.03;99213.59;5114534;28;19924;-75
2021/07/31 02:13:33;;;;;;;;;;;;;;;13.19;89.84;99213.19;5114881;28;19931;-75
2021/07/31 02:16:00;;;;;;;;;;;;;;;13.06;90.56;99218.69;5114617;28;19928;-75
2021/07/31 02:18:27;;;;;;;;;;;;;;;13.19;89.54;99217.59;5114721;28;19924;-76
2021/07/31 02:20:53;;;;;;;;;;;;;;;12.92;91.17;99220.88;5114046;28;19945;-75
2021/07/31 02:23:20;;;;;;;;;;;;;;;12.82;91.57;99221.72;5114697;28;20317;-75
2021/07/31 02:25:46;;;;;;;;;;;;;;;13.03;90.52;99221.59;5114393;28;19931;-75
2021/07/31 02:28:13;;;;;;;;;;;;;;;12.90;91.39;99222.84;5114223;28;19923;-75
2021/07/31 02:30:41;;;;;;;;;;;;;;;12.98;90.59;99228.19;5113950;28;19973;-75
2021/07/31 02:33:08;;;;;;;;;;;;;;;12.90;90.98;99215.00;5114473;28;19924;-75
2021/07/31 02:35:34;;;;;;;;;;;;;;;12.89;91.16;99216.75;5114142;28;19930;-75
2021/07/31 02:38:02;;;;;;;;;;;;;;;12.92;90.91;99216.50;5114098;28;19935;-75
2021/07/31 02:40:29;;;;;;;;;;;;;;;13.04;90.56;99217.19;5114348;28;19924;-75
2021/07/31 02:42:55;;;;;;;;;;;;;;;13.03;90.66;99213.75;5113985;28;19924;-75
2021/07/31 02:45:22;;;;;;;;;;;;;;;13.05;90.43;99214.44;5113936;28;19923;-75
2021/07/31 02:47:50;;;;;;;;;;;;;;;13.07;90.30;99217.75;5113973;28;19924;-75
2021/07/31 02:50:17;;;;;;;;;;;;;;;12.98;90.68;99215.13;5113865;28;20438;-75
2021/07/31 02:52:44;;;;;;;;;;;;;;;13.06;90.06;99213.47;5113494;28;19949;-75
2021/07/31 02:55:11;;;;;;;;;;;;;;;12.85;90.69;99215.41;5113757;28;19930;-76
2021/07/31 02:57:37;;;;;;;;;;;;;;;12.78;90.79;99216.91;5113573;28;20293;-75
2021/07/31 03:00:04;;;;;;;;;;;;;;;12.85;90.59;99229.28;5113716;28;19930;-75
2021/07/31 03:02:31;;;;;;;;;;;;;;;12.87;90.54;99226.53;5113370;28;20266;-75
2021/07/31 03:04:59;;;;;;;;;;;;;;;12.97;89.79;99229.97;5113607;28;19924;-75
2021/07/31 03:07:25;;;;;;;;;;;;;;;12.79;90.21;99227.22;5113709;28;19923;-75
2021/07/31 03:09:52;;;;;;;;;;;;;;;12.73;90.82;99226.91;5113584;28;19972;-75
2021/07/31 03:12:19;;;;;;;;;;;;;;;12.86;90.17;99235.31;5113499;28;20372;-75
2021/07/31 03:14:45;;;;;;;;;;;;;;;12.74;90.54;99232.03;5113435;28;19924;-75
2021/07/31 03:17:12;;;;;;;;;;;;;;;12.72;90.90;99233.13;5113249;28;19924;-75
2021/07/31 03:19:38;;;;;;;;;;;;;;;12.78;90.81;99233.38;5113293;28;20365;-75
2021/07/31 03:22:06;;;;;;;;;;;;;;;12.75;90.36;99231.03;5113499;28;19981;-75
2021/07/31 03:24:34;;;;;;;;;;;;;;;12.67;90.60;99233.50;5113547;27;19947;-75
2021/07/31 03:27:01;;;;;;;;;;;;;;;12.67;90.70;99235.31;5112996;28;19927;-75
2021/07/31 03:29:27;;;;;;;;;;;;;;;12.53;91.46;99241.72;5113394;28;19924;-75
2021/07/31 03:31:54;;;;;;;;;;;;;;;12.62;91.14;99240.91;5112912;28;19930;-75
2021/07/31 03:34:21;;;;;;;;;;;;;;;12.56;91.97;99229.25;5113025;28;19923;-75
2021/07/31 03:36:51;;;;;;;;;;;;;;;12.82;89.71;99237.38;5112916;27;19931;-75
2021/07/31 03:39:20;;;;;;;;;;;;;;;12.58;90.93;99232.50;5113289;28;19943;-75
2021/07/31 03:41:47;;;;;;;;;;;;;;;12.43;92.16;99244.28;5113123;28;19924;-75
2021/07/31 03:44:13;;;;;;;;;;;;;;;12.60;90.90;99237.63;5113009;28;19924;-76
2021/07/31 03:46:42;;;;;;;;;;;;;;;12.83;89.97;99246.84;5113088;28;19924;-76
2021/07/31 03:49:08;;;;;;;;;;;;;;;12.60;90.86;99238.44;5112969;28;20303;-76
2021/07/31 03:51:35;;;;;;;;;;;;;;;12.82;90.20;99247.81;5113176;28;19930;-76
2021/07/31 03:54:02;;;;;;;;;;;;;;;12.87;89.99;99242.19;5112686;28;19931;-75
2021/07/31 03:56:30;;;;;;;;;;;;;;;12.93;89.36;99252.09;5112887;28;19924;-75
2021/07/31 03:58:56;;;;;;;;;;;;;;;12.74;90.27;99252.03;5112466;28;19924;-76
2021/07/31 04:01:23;;;;;;;;;;;;;;;12.88;90.02;99250.84;5113048;28;19935;-75
2021/07/31 04:03:50;;;;;;;;;;;;;;;12.82;90.00;99257.44;5112418;28;19924;-75
2021/07/31 04:06:17;;;;;;;;;;;;;;;12.80;90.59;99254.13;5113125;28;19924;-75
2021/07/31 04:08:44;;;;;;;;;;;;;;;12.93;89.77;99259.91;5112840;28;19924;-75
2021/07/31 04:11:10;;;;;;;;;;;;;;;13.10;89.44;99263.66;5112653;28;20405;-75
2021/07/31 04:13:38;;;;;;;;;;;;;;;13.23;88.46;99265.97;5112698;28;19931;-75
2021/07/31 04:16:07;;;;;;;;;;;;;;;13.07;88.72;99261.28;5112460;28;20014;-75
2021/07/31 04:18:33;;;;;;;;;;;;;;;13.28;87.59;99255.97;5112615;28;20393;-75
2021/07/31 04:21:01;;;;;;;;;;;;;;;13.14;88.55;99266.81;5112680;28;20086;-75
2021/07/31 04:23:27;;;;;;;;;;;;;;;13.21;88.43;99257.47;5113973;28;19927;-75
2021/07/31 04:25:54;;;;;;;;;;;;;;;13.01;88.83;99269.69;5116402;28;20385;-75
2021/07/31 04:28:20;;;;;;;;;;;;;;;13.14;88.50;99272.03;5116852;28;19981;-75
2021/07/31 04:30:48;;;;;;;;;;;;;;;12.74;90.74;99272.94;5116668;28;19927;-75
2021/07/31 04:33:15;;;;;;;;;;;;;;;13.15;89.17;99277.09;5116875;28;19946;-76
2021/07/31 04:35:42;;;;;;;;;;;;;;;12.93;90.02;99277.38;5116222;28;19931;-76
2021/07/31 04:38:08;;;;;;;;;;;;;;;13.18;88.99;99279.47;5116718;28;19923;-76
2021/07/31 04:40:35;;;;;;;;;;;;;;;13.08;88.69;99278.63;5116628;28;19924;-75
2021/07/31 04:43:02;;;;;;;;;;;;;;;13.21;88.12;99276.56;5116049;28;19934;-75
2021/07/31 04:45:29;;;;;;;;;;;;;;;13.12;88.62;99280.00;5116652;28;19962;-76
2021/07/31 04:47:57;;;;;;;;;;;;;;;13.37;87.59;99270.81;5115975;28;20374;-76
2021/07/31 04:50:23;;;;;;;;;;;;;;;13.37;87.78;99278.66;5116156;28;19928;-75
2021/07/31 04:52:50;;;;;;;;;;;;;;;13.50;86.61;99273.97;5116262;28;19931;-75
2021/07/31 04:55:17;;;;;;;;;;;;;;;13.53;86.87;99280.69;5116461;28;19923;-75
2021/07/31 04:57:43;;;;;;;;;;;;;;;13.62;86.64;99279.88;5115657;27;19928;-76
2021/07/31 05:00:11;;;;;;;;;;;;;;;13.57;85.69;99274.25;5116039;28;20378;-75
2021/07/31 05:02:37;;;;;;;;;;;;;;;13.60;85.85;99273.97;5115741;28;20386;-75
2021/07/31 05:05:05;;;;;;;;;;;;;;;13.31;87.29;99280.97;5115966;28;19934;-75
2021/07/31 05:07:32;;;;;;;;;;;;;;;13.47;86.63;99273.44;5116208;28;19923;-75
2021/07/31 05:09:59;;;;;;;;;;;;;;;13.71;85.34;99272.97;5115545;28;19928;-76
2021/07/31 05:12:25;;;;;;;;;;;;;;;13.70;84.76;99273.94;5115734;28;19924;-75
2021/07/31 05:14:52;;;;;;;;;;;;;;;13.53;85.67;99275.47;5115713;28;19924;-76
2021/07/31 05:17:20;;;;;;;;;;;;;;;13.63;84.86;99278.91;5115605;28;20327;-75
2021/07/31 05:19:47;;;;;;;;;;;;;;;13.26;86.25;99284.84;5115347;28;19924;-75
2021/07/31 05:22:15;;;;;;;;;;;;;;;13.18;87.19;99278.63;5115471;28;19932;-75
2021/07/31 05:24:42;;;;;;;;;;;;;;;13.43;85.95;99280.69;5115279;28;20339;-76
2021/07/31 05:27:09;;;;;;;;;;;;;;;13.66;85.21;99281.22;5115468;27;19924;-75
2021/07/31 05:29:35;;;;;;;;;;;;;;;13.67;85.45;99282.09;5115364;28;19924;-76
2021/07/31 05:32:02;;;;;;;;;;;;;;;13.68;85.59;99281.91;5115441;28;20026;-76
2021/07/31 05:34:28;;;;;;;;;;;;;;;13.83;84.70;99271.03;5115168;28;19931;-76
2021/07/31 05:36:55;;;;;;;;;;;;;;;13.94;84.68;99281.31;5115277;28;19924;-76
2021/07/31 05:39:23;;;;;;;;;;;;;;;13.77;84.72;99277.66;5115245;28;19924;-76
2021/07/31 05:41:49;;;;;;;;;;;;;;;13.80;84.75;99277.38;5115269;28;19931;-75
2021/07/31 05:44:16;;;;;;;;;;;;;;;13.92;84.46;99283.25;5115156;28;19930;-75
2021/07/31 05:46:43;;;;;;;;;;;;;;;13.96;83.76;99275.97;5115523;28;19924;-75
2021/07/31 05:49:09;;;;;;;;;;;;;;;13.92;84.22;99272.78;5115107;28;19924;-75
2021/07/31 05:51:36;;;;;;;;;;;;;;;14.13;83.14;99272.63;5115041;28;19930;-75
2021/07/31 05:54:02;;;;;;;;;;;;;;;14.26;82.38;99278.34;5114739;28;19928;-75
2021/07/31 05:56:30;;;;;;;;;;;;;;;14.24;83.19;99277.66;5114959;28;20301;-75
2021/07/31 05:58:57;;;;;;;;;;;;;;;14.16;82.91;99280.97;5114891;28;19973;-75
2021/07/31 06:01:23;;;;;;;;;;;;;;;14.31;83.08;99286.56;5115395;28;19930;-75
2021/07/31 06:03:50;;;;;;;;;;;;;;;14.32;82.35;99282.97;5114207;28;19923;-75
2021/07/31 06:06:16;;;;;;;;;;;;;;;13.82;84.89;99285.06;5114759;28;19924;-76
2021/07/31 06:08:43;;;;;;;;;;;;;;;14.22;82.39;99279.56;5114456;28;20401;-76
2021/07/31 06:11:10;;;;;;;;;;;;;;;14.01;83.23;99285.03;5114925;28;20180;-76
2021/07/31 06:13:37;;;;;;;;;;;;;;;14.07;82.87;99281.81;5114544;28;19924;-76
2021/07/31 06:16:07;;;;;;;;;;;;;;;13.88;83.33;99282.72;5114567;28;19949;-76
2021/07/31 06:18:34;;;;;;;;;;;;;;;13.87;84.37;99288.06;5114789;28;20374;-76
2021/07/31 06:21:01;;;;;;;;;;;;;;;14.12;83.42;99284.84;5114817;28;19928;-76
2021/07/31 06:23:27;;;;;;;;;;;;;;;14.11;82.77;99285.81;5114684;28;19923;-76
2021/07/31 06:25:59;;;;;;;;;;;;;;;14.09;83.89;99285.13;5114099;28;19924;-76
2021/07/31 06:28:26;;;;;;;;;;;;;;;14.20;83.18;99280.69;5114598;28;19924;-76
2021/07/31 06:30:54;;;;;;;;;;;;;;;14.35;82.83;99293.16;5114039;28;20392;-76
2021/07/31 06:33:20;;;;;;;;;;;;;;;14.35;82.94;99290.53;5114159;28;19924;-76
2021/07/31 06:35:47;;;;;;;;;;;;;;;14.24;83.27;99289.91;5113983;28;20388;-76
2021/07/31 06:38:13;;;;;;;;;;;;;;;14.30;82.76;99291.94;5114356;28;19924;-76
2021/07/31 06:40:42;;;;;;;;;;;;;;;14.10;83.39;99291.19;5114316;28;19930;-76
2021/07/31 06:43:08;;;;;;;;;;;;;;;13.99;83.42;99294.78;5114057;28;19931;-75
2021/07/31 06:45:35;;;;;;;;;;;;;;;14.24;83.20;99295.16;5113523;28;19934;-75
2021/07/31 06:48:03;;;;;;;;;;;;;;;14.28;82.05;99294.72;5113734;28;19928;-75
2021/07/31 06:50:30;;;;;;;;;;;;;;;13.98;83.46;99298.38;5114152;28;19923;-75
2021/07/31 06:52:56;;;;;;;;;;;;;;;14.00;83.46;99295.63;5113534;28;20005;-75
2021/07/31 06:55:23;;;;;;;;;;;;;;;13.72;84.29;99293.75;5113771;28;19924;-75
2021/07/31 06:57:49;;;;;;;;;;;;;;;13.81;84.73;99301.72;5113746;28;19924;-75
2021/07/31 07:00:16;;;;;;;;;;;;;;;14.52;81.99;99304.66;5113766;28;19924;-75
2021/07/31 07:02:42;;;;;;;;;;;;;;;14.56;81.60;99308.66;5113429;28;19942;-75
2021/07/31 07:05:11;;;;;;;;;;;;;;;14.75;80.79;99299.91;5113903;28;19931;-75
2021/07/31 07:07:38;;;;;;;;;;;;;;;14.93;79.98;99299.94;5113534;28;19931;-76
2021/07/31 07:10:05;;;;;;;;;;;;;;;15.07;79.91;99298.56;5113138;28;19953;-76
2021/07/31 07:12:31;;;;;;;;;;;;;;;15.07;79.70;99303.00;5113753;28;19930;-75
2021/07/31 07:14:58;;;;;;;;;;;;;;;15.23;78.97;99300.53;5113072;28;19923;-76
2021/07/31 07:17:24;;;;;;;;;;;;;;;15.31;78.38;99302.41;5113343;28;19931;-75
2021/07/31 07:19:51;;;;;;;;;;;;;;;15.09;78.32;99301.06;5113367;28;19930;-75
2021/07/31 07:22:19;;;;;;;;;;;;;;;14.98;79.29;99308.16;5113428;28;19924;-76
2021/07/31 07:24:46;;;;;;;;;;;;;;;14.53;81.53;99310.75;5113368;28;19934;-76
2021/07/31 07:27:13;;;;;;;;;;;;;;;15.25;78.23;99314.31;5113554;28;19930;-76
2021/07/31 07:29:39;;;;;;;;;;;;;;;15.52;77.07;99312.59;5113227;28;19923;-75
2021/07/31 07:32:06;;;;;;;;;;;;;;;15.55;77.56;99315.72;5113200;28;19934;-75
2021/07/31 07:34:37;;;;;;;;;;;;;;;15.80;75.65;99322.03;5113057;28;19927;-75
2021/07/31 07:37:03;;;;;;;;;;;;;;;16.14;75.65;99313.41;5112944;28;20396;-76
2021/07/31 07:39:31;;;;;;;;;;;;;;;16.06;75.66;99316.78;5113039;28;19924;-75
2021/07/31 07:41:58;;;;;;;;;;;;;;;15.87;76.26;99320.41;5112765;28;19931;-75
2021/07/31 07:44:25;;;;;;;;;;;;;;;15.81;75.91;99320.22;5113047;28;19924;-75
2021/07/31 07:46:51;;;;;;;;;;;;;;;15.38;77.19;99325.25;5112963;28;19923;-75
2021/07/31 07:49:18;;;;;;;;;;;;;;;15.72;76.15;99324.59;5112936;28;19935;-75
2021/07/31 07:51:44;;;;;;;;;;;;;;;15.57;77.54;99334.75;5112663;28;20297;-75
2021/07/31 07:54:11;;;;;;;;;;;;;;;15.82;75.71;99334.97;5113241;28;19946;-75
2021/07/31 07:56:39;;;;;;;;;;;;;;;15.91;75.37;99333.25;5112993;28;19924;-75
2021/07/31 07:59:05;;;;;;;;;;;;;;;15.04;77.98;99338.16;5115348;28;19931;-75
2021/07/31 08:01:32;;;;;;;;;;;;;;;15.17;78.23;99348.28;5117202;28;19923;-75
2021/07/31 08:03:59;;;;;;;;;;;;;;;15.31;77.13;99345.19;5116723;28;19966;-76
2021/07/31 08:06:25;;;;;;;;;;;;;;;14.92;77.87;99342.78;5117334;28;19924;-75
2021/07/31 08:08:52;;;;;;;;;;;;;;;15.37;76.81;99355.06;5116693;28;19931;-76
2021/07/31 08:11:19;;;;;;;;;;;;;;;15.44;76.56;99356.09;5117281;28;19946;-76
2021/07/31 08:13:47;;;;;;;;;;;;;;;15.54;75.89;99357.81;5116985;28;19934;-76
2021/07/31 08:16:13;;;;;;;;;;;;;;;15.38;76.05;99356.69;5117207;28;19923;-76
2021/07/31 08:18:40;;;;;;;;;;;;;;;15.06;77.92;99359.81;5116996;28;19924;-76
2021/07/31 08:21:06;;;;;;;;;;;;;;;15.53;75.93;99356.19;5116808;28;19928;-76
2021/07/31 08:23:33;;;;;;;;;;;;;;;15.78;75.38;99362.50;5116679;28;20015;-75
2021/07/31 08:26:02;;;;;;;;;;;;;;;15.56;76.25;99364.56;5116448;28;20277;-76
2021/07/31 08:28:28;;;;;;;;;;;;;;;15.85;74.74;99371.38;5116550;28;20366;-76
2021/07/31 08:30:56;;;;;;;;;;;;;;;16.50;72.87;99361.31;5116742;28;19931;-76
2021/07/31 08:33:23;;;;;;;;;;;;;;;16.79;72.29;99362.78;5116798;28;19931;-76
2021/07/31 08:35:49;;;;;;;;;;;;;;;16.74;72.45;99357.16;5116562;28;19923;-76
2021/07/31 08:38:16;;;;;;;;;;;;;;;16.26;73.75;99363.78;5116398;27;19924;-75
2021/07/31 08:40:44;;;;;;;;;;;;;;;16.73;71.77;99372.09;5116013;28;19931;-76
2021/07/31 08:43:10;;;;;;;;;;;;;;;16.93;72.04;99366.63;5116405;28;20267;-76
2021/07/31 08:45:37;;;;;;;;;;;;;;;17.08;71.19;99367.63;5116337;28;19934;-76
2021/07/31 08:48:05;;;;;;;;;;;;;;;17.18;70.50;99375.41;5116380;28;19924;-75
2021/07/31 08:50:32;;;;;;;;;;;;;;;17.01;71.11;99366.66;5116371;28;19924;-76
2021/07/31 08:52:59;;;;;;;;;;;;;;;16.96;72.12;99374.19;5116167;28;19928;-76
2021/07/31 08:55:26;;;;;;;;;;;;;;;16.33;74.70;99372.69;5116155;28;19924;-76
2021/07/31 08:57:52;;;;;;;;;;;;;;;16.68;73.58;99370.94;5116150;28;19924;-76
2021/07/31 09:00:19;;;;;;;;;;;;;;;16.68;72.76;99376.19;5116315;28;19924;-75
2021/07/31 09:02:46;;;;;;;;;;;;;;;16.80;72.39;99374.13;5115476;28;19924;-75
2021/07/31 09:05:28;;;;;;;;;;;;;;;16.95;71.45;99380.41;5116076;28;19924;-76
2021/07/31 09:07:59;;;;;;;;;;;;;;;17.31;68.88;99378.38;5115939;28;19924;-75
2021/07/31 09:10:26;;;;;;;;;;;;;;;17.40;68.13;99382.69;5115344;28;20378;-76
2021/07/31 09:12:53;;;;;;;;;;;;;;;17.18;69.67;99386.72;5115783;28;19930;-76
2021/07/31 09:15:28;;;;;;;;;;;;;;;17.45;68.63;99386.66;5115729;28;19923;-75
2021/07/31 09:17:55;;;;;;;;;;;;;;;16.62;73.14;99390.78;5115286;28;19930;-76
2021/07/31 09:20:23;;;;;;;;;;;;;;;16.81;73.02;99383.66;5115511;28;19924;-76
2021/07/31 09:22:53;;;;;;;;;;;;;;;17.07;71.56;99383.59;5115252;28;19924;-75
2021/07/31 09:25:22;;;;;;;;;;;;;;;17.36;69.59;99391.03;5115458;28;19924;-73
2021/07/31 09:27:48;;;;;;;;;;;;;;;17.10;70.83;99389.34;5115409;28;19927;-72
2021/07/31 09:30:15;;;;;;;;;;;;;;;16.96;70.75;99390.78;5115479;28;19924;-73
2021/07/31 09:32:43;;;;;;;;;;;;;;;16.93;71.59;99398.16;5115300;28;20275;-74
2021/07/31 09:35:24;;;;;;;;;;;;;;;17.00;71.86;99403.59;5115545;28;19957;-73
2021/07/31 09:37:51;;;;;;;;;;;;;;;17.06;71.30;99405.56;5115308;27;19939;-73
2021/07/31 09:40:27;;;;;;;;;;;;;;;17.15;71.05;99415.13;5115523;28;20317;-73
2021/07/31 09:42:54;;;;;;;;;;;;;;;16.99;71.23;99405.41;5114984;28;19930;-74
2021/07/31 09:45:31;;;;;;;;;;;;;;;17.17;70.06;99411.38;5115334;28;19946;-73
2021/07/31 09:47:59;;;;;;;;;;;;;;;16.78;72.14;99412.88;5115170;28;19935;-73
2021/07/31 09:50:37;;;;;;;;;;;;;;;17.14;70.73;99422.22;5115010;28;19924;-73
2021/07/31 09:53:11;;;;;;;;;;;;;;;16.42;72.91;99418.22;5114852;28;20336;-72
2021/07/31 09:55:38;;;;;;;;;;;;;;;17.06;71.75;99416.09;5115168;28;19929;-73
2021/07/31 09:58:07;;;;;;;;;;;;;;;17.62;68.33;99419.84;5115011;28;19931;-72
2021/07/31 10:00:34;;;;;;;;;;;;;;;18.00;67.59;99417.63;5115036;28;19924;-72
2021/07/31 10:03:01;;;;;;;;;;;;;;;17.84;67.16;99411.34;5114654;28;19924;-70
2021/07/31 10:05:29;;;;;;;;;;;;;;;17.95;66.71;99417.28;5115148;28;19928;-71
2021/07/31 10:07:57;;;;;;;;;;;;;;;18.64;64.07;99410.59;5114623;28;19931;-72
2021/07/31 10:10:24;;;;;;;;;;;;;;;17.75;66.10;99416.75;5115091;28;19924;-73
2021/07/31 10:12:50;;;;;;;;;;;;;;;19.01;62.10;99408.34;5114464;28;20267;-72
2021/07/31 10:15:17;;;;;;;;;;;;;;;19.50;60.35;99414.22;5114817;28;19931;-73
2021/07/31 10:17:44;;;;;;;;;;;;;;;19.86;61.11;99411.03;5114179;28;20498;-72
2021/07/31 10:20:12;;;;;;;;;;;;;;;19.79;60.35;99412.72;5114117;28;19923;-73
2021/07/31 10:22:42;;;;;;;;;;;;;;;19.79;60.04;99418.00;5113828;28;19931;-73
2021/07/31 10:25:11;;;;;;;;;;;;;;;19.35;61.34;99419.41;5114380;28;19931;-73
2021/07/31 10:27:37;;;;;;;;;;;;;;;18.92;62.32;99418.13;5114568;28;19928;-73
2021/07/31 10:30:06;;;;;;;;;;;;;;;18.99;62.20;99413.00;5113659;28;19947;-72
2021/07/31 10:32:40;;;;;;;;;;;;;;;19.39;60.75;99419.88;5114796;28;19930;-73
2021/07/31 10:35:07;;;;;;;;;;;;;;;19.53;59.90;99421.78;5114029;28;19923;-72
2021/07/31 10:37:46;;;;;;;;;;;;;;;19.79;59.51;99433.84;5114409;28;19924;-72
2021/07/31 10:40:29;;;;;;;;;;;;;;;19.96;58.30;99429.25;5114361;28;19972;-73
2021/07/31 10:43:07;;;;;;;;;;;;;;;19.97;58.84;99433.53;5113673;28;20370;-73
2021/07/31 10:45:34;;;;;;;;;;;;;;;18.56;62.31;99429.06;5114186;28;19931;-72
2021/07/31 10:48:01;;;;;;;;;;;;;;;19.05;60.16;99430.75;5114142;28;19924;-73
2021/07/31 10:50:35;;;;;;;;;;;;;;;19.71;58.82;99432.06;5114596;28;19931;-78
2021/07/31 10:53:03;;;;;;;;;;;;;;;19.93;57.45;99440.16;5114325;28;19928;-73
2021/07/31 10:55:56;;;;;;;;;;;;;;;19.15;59.39;99437.47;5114036;28;19924;-73
2021/07/31 10:58:24;;;;;;;;;;;;;;;18.62;61.62;99430.19;5113968;28;19923;-73
2021/07/31 11:00:52;;;;;;;;;;;;;;;18.98;60.57;99442.97;5113675;28;19931;-73
2021/07/31 11:03:37;;;;;;;;;;;;;;;19.95;56.76;99446.09;5113501;28;19928;-72
2021/07/31 11:06:04;;;;;;;;;;;;;;;20.17;57.38;99449.72;5113628;28;19931;-73
2021/07/31 11:08:35;;;;;;;;;;;;;;;19.05;59.91;99452.66;5112712;28;21328;-73
2021/07/31 11:11:01;;;;;;;;;;;;;;;19.07;60.92;99450.69;5113277;28;20297;-77
2021/07/31 11:13:49;;;;;;;;;;;;;;;18.73;63.00;99458.84;5113368;28;20400;-76
2021/07/31 11:16:21;;;;;;;;;;;;;;;19.15;62.59;99458.56;5113725;28;19927;-74
2021/07/31 11:18:49;;;;;;;;;;;;;;;18.96;62.23;99458.97;5113423;28;19930;-76
2021/07/31 11:21:16;;;;;;;;;;;;;;;18.89;63.39;99460.63;5113251;28;19923;-76
2021/07/31 11:23:44;;;;;;;;;;;;;;;18.99;62.29;99457.81;5113090;28;19930;-76
2021/07/31 11:26:11;;;;;;;;;;;;;;;18.32;65.42;99463.34;5113136;28;19924;-75
2021/07/31 11:28:38;;;;;;;;;;;;;;;18.33;64.38;99465.00;5113101;28;19930;-75
2021/07/31 11:31:17;;;;;;;;;;;;;;;17.97;66.62;99463.50;5113185;28;19924;-73
2021/07/31 11:33:43;;;;;;;;;;;;;;;17.33;68.12;99465.78;5112801;27;19924;-70
2021/07/31 11:36:13;;;;;;;;;;;;;;;17.55;68.28;99467.03;5113072;28;20386;-71
2021/07/31 11:38:40;;;;;;;;;;;;;;;18.04;66.58;99467.13;5113394;28;19927;-72
2021/07/31 11:41:08;;;;;;;;;;;;;;;17.86;67.64;99468.28;5113140;28;19931;-77
2021/07/31 11:43:47;;;;;;;;;;;;;;;18.02;67.96;99478.81;5113027;28;19930;-78
2021/07/31 11:46:32;;;;;;;;;;;;;;;18.12;65.52;99468.94;5112966;28;19923;-76
2021/07/31 11:48:59;;;;;;;;;;;;;;;17.80;66.18;99473.19;5112698;28;19924;-73
2021/07/31 11:51:26;;;;;;;;;;;;;;;17.17;69.37;99477.06;5112982;28;19924;-72
2021/07/31 11:53:53;;;;;;;;;;;;;;;17.31;69.29;99477.44;5112992;28;20298;-75
2021/07/31 11:56:20;;;;;;;;;;;;;;;17.41;68.62;99478.16;5113200;28;19935;-73
2021/07/31 11:58:48;;;;;;;;;;;;;;;17.89;68.54;99475.84;5113096;28;19947;-73
2021/07/31 12:01:15;;;;;;;;;;;;;;;21.57;57.09;99480.78;5113068;28;19924;-73
2021/07/31 12:03:43;;;;;;;;;;;;;;;23.87;49.75;99480.94;5112625;28;19930;-75
2021/07/31 12:06:28;;;;;;;;;;;;;;;24.57;47.55;99476.06;5113200;28;20100;-73
2021/07/31 12:08:57;;;;;;;;;;;;;;;22.49;50.97;99477.38;5113148;28;19931;-72
2021/07/31 12:11:31;;;;;;;;;;;;;;;22.10;52.26;99471.53;5112655;28;20022;-71
2021/07/31 12:13:57;;;;;;;;;;;;;;;22.60;52.85;99471.53;5112696;28;19923;-72
2021/07/31 12:16:26;;;;;;;;;;;;;;;24.20;49.25;99474.81;5112660;28;19924;-71
2021/07/31 12:18:54;;;;;;;;;;;;;;;26.01;43.94;99469.59;5112639;28;19923;-72
2021/07/31 12:21:25;;;;;;;;;;;;;;;26.76;42.75;99478.63;5112442;28;20271;-73
2021/07/31 12:23:51;;;;;;;;;;;;;;;26.45;41.84;99488.31;5112156;28;19924;-72
2021/07/31 12:26:27;;;;;;;;;;;;;;;24.52;46.65;99484.66;5112866;28;19931;-73
2021/07/31 12:28:56;;;;;;;;;;;;;;;25.42;44.21;99487.53;5112266;28;20115;-71
2021/07/31 12:31:23;;;;;;;;;;;;;;;22.74;51.31;99489.19;5112708;28;19985;-72
2021/07/31 12:33:49;;;;;;;;;;;;;;;21.67;53.99;99490.06;5112185;28;20262;-72
2021/07/31 12:36:17;;;;;;;;;;;;;;;21.08;55.63;99495.41;5112789;28;19923;-72
2021/07/31 12:38:44;;;;;;;;;;;;;;;20.79;55.92;99504.16;5112465;28;19923;-72
2021/07/31 12:41:11;;;;;;;;;;;;;;;20.16;57.83;99492.94;5112282;28;19938;-72
2021/07/31 12:43:37;;;;;;;;;;;;;;;21.15;54.68;99492.88;5112763;28;19931;-72
2021/07/31 12:46:04;;;;;;;;;;;;;;;21.60;53.57;99486.50;5116074;28;20396;-72
2021/07/31 12:48:31;;;;;;;;;;;;;;;20.95;55.44;99497.88;5116422;28;19923;-71
2021/07/31 12:50:58;;;;;;;;;;;;;;;20.79;57.11;99493.59;5115836;28;19994;-72